sensor_id;sensor_type;location;lat;lon;timestamp;temperature;humidity
65864;SHT30;52639;51.180;20.460;2023-06-22T00:01:23;17.47;89.06
65864;SHT30;52639;51.180;20.460;2023-06-22T00:05:29;17.35;89.30
65864;SHT30;52639;51.180;20.460;2023-06-22T00:09:34;17.35;89.32
65864;SHT30;52639;51.180;20.460;2023-06-22T00:13:40;17.17;89.42
65864;SHT30;52639;51.180;20.460;2023-06-22T00:17:46;17.10;89.63
65864;SHT30;52639;51.180;20.460;2023-06-22T00:31:01;16.76;89.80
65864;SHT30;52639;51.180;20.460;2023-06-22T00:35:07;16.65;89.86
65864;SHT30;52639;51.180;20.460;2023-06-22T00:39:11;16.51;90.08
65864;SHT30;52639;51.180;20.460;2023-06-22T00:43:14;16.53;90.06
65864;SHT30;52639;51.180;20.460;2023-06-22T00:47:28;16.42;90.01
65864;SHT30;52639;51.180;20.460;2023-06-22T00:51:32;16.42;89.97
65864;SHT30;52639;51.180;20.460;2023-06-22T00:55:44;16.46;89.72
65864;SHT30;52639;51.180;20.460;2023-06-22T00:59:58;16.36;89.92
65864;SHT30;52639;51.180;20.460;2023-06-22T01:04:43;16.29;89.97
65864;SHT30;52639;51.180;20.460;2023-06-22T01:09:08;16.25;90.02
65864;SHT30;52639;51.180;20.460;2023-06-22T01:18:47;16.06;90.24
65864;SHT30;52639;51.180;20.460;2023-06-22T01:34:33;16.02;89.85
65864;SHT30;52639;51.180;20.460;2023-06-22T01:38:52;16.04;89.90
65864;SHT30;52639;51.180;20.460;2023-06-22T01:43:39;15.82;90.27
65864;SHT30;52639;51.180;20.460;2023-06-22T01:48:26;15.80;90.35
65864;SHT30;52639;51.180;20.460;2023-06-22T01:53:15;15.75;90.41
65864;SHT30;52639;51.180;20.460;2023-06-22T01:58:17;15.71;90.50
65864;SHT30;52639;51.180;20.460;2023-06-22T02:02:42;15.71;90.34
65864;SHT30;52639;51.180;20.460;2023-06-22T02:19:26;15.60;90.58
65864;SHT30;52639;51.180;20.460;2023-06-22T03:00:49;15.70;90.34
65864;SHT30;52639;51.180;20.460;2023-06-22T03:23:15;16.04;90.18
65864;SHT30;52639;51.180;20.460;2023-06-22T03:33:19;16.25;90.30
65864;SHT30;52639;51.180;20.460;2023-06-22T04:09:25;17.54;89.12
65864;SHT30;52639;51.180;20.460;2023-06-22T04:14:33;17.84;88.95
65864;SHT30;52639;51.180;20.460;2023-06-22T05:03:10;19.66;88.05
65864;SHT30;52639;51.180;20.460;2023-06-22T05:28:04;21.03;86.59
65864;SHT30;52639;51.180;20.460;2023-06-22T05:32:39;21.00;86.44
65864;SHT30;52639;51.180;20.460;2023-06-22T05:36:42;20.80;86.97
65864;SHT30;52639;51.180;20.460;2023-06-22T05:40:48;21.24;86.14
65864;SHT30;52639;51.180;20.460;2023-06-22T05:44:53;21.81;84.68
65864;SHT30;52639;51.180;20.460;2023-06-22T05:48:57;21.98;84.65
65864;SHT30;52639;51.180;20.460;2023-06-22T05:53:00;22.56;83.28
65864;SHT30;52639;51.180;20.460;2023-06-22T05:57:14;24.13;79.28
65864;SHT30;52639;51.180;20.460;2023-06-22T06:01:42;23.04;83.15
65864;SHT30;52639;51.180;20.460;2023-06-22T06:05:49;23.00;83.37
65864;SHT30;52639;51.180;20.460;2023-06-22T06:09:53;28.93;68.21
65864;SHT30;52639;51.180;20.460;2023-06-22T06:13:57;32.29;60.69
65864;SHT30;52639;51.180;20.460;2023-06-22T06:18:18;34.02;56.97
65864;SHT30;52639;51.180;20.460;2023-06-22T06:22:40;30.98;64.52
65864;SHT30;52639;51.180;20.460;2023-06-22T06:26:54;31.62;65.20
65864;SHT30;52639;51.180;20.460;2023-06-22T06:30:59;31.78;65.10
65864;SHT30;52639;51.180;20.460;2023-06-22T06:35:26;34.73;57.00
65864;SHT30;52639;51.180;20.460;2023-06-22T06:39:29;35.74;54.87
65864;SHT30;52639;51.180;20.460;2023-06-22T06:43:33;35.82;55.41
65864;SHT30;52639;51.180;20.460;2023-06-22T06:47:36;36.89;53.04
65864;SHT30;52639;51.180;20.460;2023-06-22T06:51:43;37.23;52.09
65864;SHT30;52639;51.180;20.460;2023-06-22T06:56:05;38.11;49.14
65864;SHT30;52639;51.180;20.460;2023-06-22T07:00:54;32.03;63.56
65864;SHT30;52639;51.180;20.460;2023-06-22T07:04:57;34.39;56.65
65864;SHT30;52639;51.180;20.460;2023-06-22T07:09:20;36.65;50.36
65864;SHT30;52639;51.180;20.460;2023-06-22T07:13:37;37.73;48.26
65864;SHT30;52639;51.180;20.460;2023-06-22T07:17:40;38.42;47.35
65864;SHT30;52639;51.180;20.460;2023-06-22T07:26:38;36.97;49.85
65864;SHT30;52639;51.180;20.460;2023-06-22T07:36:00;38.29;45.79
65864;SHT30;52639;51.180;20.460;2023-06-22T07:40:05;37.40;46.72
65864;SHT30;52639;51.180;20.460;2023-06-22T07:44:31;37.58;45.09
65864;SHT30;52639;51.180;20.460;2023-06-22T07:48:56;39.27;41.16
65864;SHT30;52639;51.180;20.460;2023-06-22T07:53:14;38.82;43.50
65864;SHT30;52639;51.180;20.460;2023-06-22T08:02:05;38.52;42.59
65864;SHT30;52639;51.180;20.460;2023-06-22T08:06:25;39.39;41.53
65864;SHT30;52639;51.180;20.460;2023-06-22T08:10:29;39.64;41.32
65864;SHT30;52639;51.180;20.460;2023-06-22T08:14:38;39.64;40.24
65864;SHT30;52639;51.180;20.460;2023-06-22T08:19:19;39.47;39.38
65864;SHT30;52639;51.180;20.460;2023-06-22T08:23:36;39.22;40.43
65864;SHT30;52639;51.180;20.460;2023-06-22T08:28:01;38.46;40.77
65864;SHT30;52639;51.180;20.460;2023-06-22T08:32:21;38.62;39.84
65864;SHT30;52639;51.180;20.460;2023-06-22T08:58:53;38.44;38.44
65864;SHT30;52639;51.180;20.460;2023-06-22T09:03:29;38.36;36.83
65864;SHT30;52639;51.180;20.460;2023-06-22T09:07:34;38.59;37.90
65864;SHT30;52639;51.180;20.460;2023-06-22T09:11:37;38.39;38.12
65864;SHT30;52639;51.180;20.460;2023-06-22T09:15:42;37.86;37.90
65864;SHT30;52639;51.180;20.460;2023-06-22T09:19:45;38.28;37.42
65864;SHT30;52639;51.180;20.460;2023-06-22T09:23:49;36.99;39.23
65864;SHT30;52639;51.180;20.460;2023-06-22T09:27:53;35.47;40.47
65864;SHT30;52639;51.180;20.460;2023-06-22T09:32:01;34.61;40.78
65864;SHT30;52639;51.180;20.460;2023-06-22T09:36:05;33.66;41.76
65864;SHT30;52639;51.180;20.460;2023-06-22T09:40:10;32.44;42.94
65864;SHT30;52639;51.180;20.460;2023-06-22T09:44:14;33.03;41.16
65864;SHT30;52639;51.180;20.460;2023-06-22T09:48:19;33.76;40.78
65864;SHT30;52639;51.180;20.460;2023-06-22T09:52:34;32.34;42.73
65864;SHT30;52639;51.180;20.460;2023-06-22T09:56:54;31.37;44.81
65864;SHT30;52639;51.180;20.460;2023-06-22T10:00:58;31.01;45.19
65864;SHT30;52639;51.180;20.460;2023-06-22T10:05:02;30.22;46.58
65864;SHT30;52639;51.180;20.460;2023-06-22T10:09:06;30.19;46.18
65864;SHT30;52639;51.180;20.460;2023-06-22T10:13:10;29.54;47.52
65864;SHT30;52639;51.180;20.460;2023-06-22T10:17:13;30.03;46.32
65864;SHT30;52639;51.180;20.460;2023-06-22T10:21:18;30.39;46.80
65864;SHT30;52639;51.180;20.460;2023-06-22T10:25:21;30.48;46.57
65864;SHT30;52639;51.180;20.460;2023-06-22T10:29:25;30.27;47.16
65864;SHT30;52639;51.180;20.460;2023-06-22T10:33:28;29.85;48.26
65864;SHT30;52639;51.180;20.460;2023-06-22T10:37:32;29.48;48.64
65864;SHT30;52639;51.180;20.460;2023-06-22T10:41:35;29.62;48.70
65864;SHT30;52639;51.180;20.460;2023-06-22T10:45:52;29.41;48.83
65864;SHT30;52639;51.180;20.460;2023-06-22T10:49:56;28.70;49.30
65864;SHT30;52639;51.180;20.460;2023-06-22T10:54:15;28.23;49.07
65864;SHT30;52639;51.180;20.460;2023-06-22T10:58:36;28.36;48.24
65864;SHT30;52639;51.180;20.460;2023-06-22T11:02:39;28.73;47.42
65864;SHT30;52639;51.180;20.460;2023-06-22T11:06:42;28.74;47.79
65864;SHT30;52639;51.180;20.460;2023-06-22T11:10:51;28.90;47.59
65864;SHT30;52639;51.180;20.460;2023-06-22T11:15:02;29.07;47.03
65864;SHT30;52639;51.180;20.460;2023-06-22T11:19:14;28.86;47.29
65864;SHT30;52639;51.180;20.460;2023-06-22T11:23:55;28.63;48.24
65864;SHT30;52639;51.180;20.460;2023-06-22T11:28:05;28.77;47.49
65864;SHT30;52639;51.180;20.460;2023-06-22T11:32:10;28.43;47.97
65864;SHT30;52639;51.180;20.460;2023-06-22T11:36:13;28.17;48.22
65864;SHT30;52639;51.180;20.460;2023-06-22T11:45:39;27.98;48.57
65864;SHT30;52639;51.180;20.460;2023-06-22T11:49:58;28.12;48.66
65864;SHT30;52639;51.180;20.460;2023-06-22T11:54:06;28.63;47.97
65864;SHT30;52639;51.180;20.460;2023-06-22T11:58:16;28.60;47.96
65864;SHT30;52639;51.180;20.460;2023-06-22T12:02:22;28.53;47.86
65864;SHT30;52639;51.180;20.460;2023-06-22T12:06:24;28.60;47.73
65864;SHT30;52639;51.180;20.460;2023-06-22T12:10:28;28.46;47.88
65864;SHT30;52639;51.180;20.460;2023-06-22T12:14:37;28.71;47.66
65864;SHT30;52639;51.180;20.460;2023-06-22T12:18:47;28.54;48.52
65864;SHT30;52639;51.180;20.460;2023-06-22T12:22:53;28.33;48.73
65864;SHT30;52639;51.180;20.460;2023-06-22T12:26:59;28.17;48.79
65864;SHT30;52639;51.180;20.460;2023-06-22T12:31:12;28.00;49.16
65864;SHT30;52639;51.180;20.460;2023-06-22T12:40:58;28.24;47.84
65864;SHT30;52639;51.180;20.460;2023-06-22T12:45:08;28.39;47.30
65864;SHT30;52639;51.180;20.460;2023-06-22T12:49:11;28.33;47.10
65864;SHT30;52639;51.180;20.460;2023-06-22T12:53:14;28.27;47.65
65864;SHT30;52639;51.180;20.460;2023-06-22T12:57:19;27.99;47.41
65864;SHT30;52639;51.180;20.460;2023-06-22T13:01:22;27.86;47.26
65864;SHT30;52639;51.180;20.460;2023-06-22T13:05:25;28.09;45.97
65864;SHT30;52639;51.180;20.460;2023-06-22T13:09:36;28.21;46.10
65864;SHT30;52639;51.180;20.460;2023-06-22T13:13:41;27.99;46.09
65864;SHT30;52639;51.180;20.460;2023-06-22T13:17:44;28.03;45.89
65864;SHT30;52639;51.180;20.460;2023-06-22T13:21:48;27.70;46.05
65864;SHT30;52639;51.180;20.460;2023-06-22T13:30:12;27.82;45.48
65864;SHT30;52639;51.180;20.460;2023-06-22T13:34:16;27.78;45.69
65864;SHT30;52639;51.180;20.460;2023-06-22T13:38:47;27.66;45.71
65864;SHT30;52639;51.180;20.460;2023-06-22T13:43:01;27.85;45.37
65864;SHT30;52639;51.180;20.460;2023-06-22T13:47:08;27.73;45.25
65864;SHT30;52639;51.180;20.460;2023-06-22T14:01:56;27.70;45.26
65864;SHT30;52639;51.180;20.460;2023-06-22T14:06:26;27.59;44.40
65864;SHT30;52639;51.180;20.460;2023-06-22T14:10:36;27.82;43.78
65864;SHT30;52639;51.180;20.460;2023-06-22T14:14:39;27.70;44.20
65864;SHT30;52639;51.180;20.460;2023-06-22T14:18:55;27.73;44.35
65864;SHT30;52639;51.180;20.460;2023-06-22T14:23:00;27.54;44.83
65864;SHT30;52639;51.180;20.460;2023-06-22T14:27:04;27.69;44.18
65864;SHT30;52639;51.180;20.460;2023-06-22T14:31:10;27.66;44.89
65864;SHT30;52639;51.180;20.460;2023-06-22T14:35:13;27.65;44.60
65864;SHT30;52639;51.180;20.460;2023-06-22T14:39:18;27.81;43.86
65864;SHT30;52639;51.180;20.460;2023-06-22T14:43:22;27.46;44.90
65864;SHT30;52639;51.180;20.460;2023-06-22T14:47:26;27.28;44.68
65864;SHT30;52639;51.180;20.460;2023-06-22T14:51:38;27.21;44.68
65864;SHT30;52639;51.180;20.460;2023-06-22T14:55:57;27.14;43.02
65864;SHT30;52639;51.180;20.460;2023-06-22T15:00:03;27.24;42.40
65864;SHT30;52639;51.180;20.460;2023-06-22T15:04:07;27.16;43.96
65864;SHT30;52639;51.180;20.460;2023-06-22T15:08:20;27.12;43.68
65864;SHT30;52639;51.180;20.460;2023-06-22T15:12:24;27.20;42.97
65864;SHT30;52639;51.180;20.460;2023-06-22T15:16:28;27.03;43.44
65864;SHT30;52639;51.180;20.460;2023-06-22T15:20:31;27.20;42.57
65864;SHT30;52639;51.180;20.460;2023-06-22T15:24:55;26.93;43.24
65864;SHT30;52639;51.180;20.460;2023-06-22T15:29:30;26.86;43.80
65864;SHT30;52639;51.180;20.460;2023-06-22T15:33:35;26.69;44.42
65864;SHT30;52639;51.180;20.460;2023-06-22T15:37:41;26.73;44.23
65864;SHT30;52639;51.180;20.460;2023-06-22T15:41:44;26.49;44.48
65864;SHT30;52639;51.180;20.460;2023-06-22T15:50:59;26.49;44.61
65864;SHT30;52639;51.180;20.460;2023-06-22T15:55:03;26.35;45.15
65864;SHT30;52639;51.180;20.460;2023-06-22T15:59:09;26.29;45.04
65864;SHT30;52639;51.180;20.460;2023-06-22T16:03:12;26.12;45.08
65864;SHT30;52639;51.180;20.460;2023-06-22T16:07:29;25.99;45.75
65864;SHT30;52639;51.180;20.460;2023-06-22T16:11:32;25.95;45.66
65864;SHT30;52639;51.180;20.460;2023-06-22T16:15:35;25.95;45.24
65864;SHT30;52639;51.180;20.460;2023-06-22T16:19:39;25.75;46.06
65864;SHT30;52639;51.180;20.460;2023-06-22T16:23:46;25.59;46.62
65864;SHT30;52639;51.180;20.460;2023-06-22T16:27:49;25.32;46.94
65864;SHT30;52639;51.180;20.460;2023-06-22T16:31:56;25.22;47.23
65864;SHT30;52639;51.180;20.460;2023-06-22T16:35:59;24.87;48.03
65864;SHT30;52639;51.180;20.460;2023-06-22T16:40:05;24.83;48.27
65864;SHT30;52639;51.180;20.460;2023-06-22T16:44:20;24.87;48.63
65864;SHT30;52639;51.180;20.460;2023-06-22T16:48:23;24.81;48.75
65864;SHT30;52639;51.180;20.460;2023-06-22T16:52:28;24.98;48.13
65864;SHT30;52639;51.180;20.460;2023-06-22T16:56:33;25.20;47.89
65864;SHT30;52639;51.180;20.460;2023-06-22T17:00:36;25.27;47.51
65864;SHT30;52639;51.180;20.460;2023-06-22T17:04:39;25.45;46.65
65864;SHT30;52639;51.180;20.460;2023-06-22T17:08:45;25.15;47.21
65864;SHT30;52639;51.180;20.460;2023-06-22T17:12:51;24.95;48.62
65864;SHT30;52639;51.180;20.460;2023-06-22T17:16:54;24.80;48.59
65864;SHT30;52639;51.180;20.460;2023-06-22T17:21:04;24.68;48.62
65864;SHT30;52639;51.180;20.460;2023-06-22T17:25:09;24.41;49.34
65864;SHT30;52639;51.180;20.460;2023-06-22T17:29:14;24.26;49.70
65864;SHT30;52639;51.180;20.460;2023-06-22T17:33:27;24.06;49.87
65864;SHT30;52639;51.180;20.460;2023-06-22T17:37:46;24.25;48.91
65864;SHT30;52639;51.180;20.460;2023-06-22T17:41:50;24.36;49.08
65864;SHT30;52639;51.180;20.460;2023-06-22T17:45:57;23.71;51.42
65864;SHT30;52639;51.180;20.460;2023-06-22T17:50:04;23.11;53.01
65864;SHT30;52639;51.180;20.460;2023-06-22T17:54:08;22.80;53.63
65864;SHT30;52639;51.180;20.460;2023-06-22T17:58:12;23.06;53.26
65864;SHT30;52639;51.180;20.460;2023-06-22T18:02:18;22.84;54.45
65864;SHT30;52639;51.180;20.460;2023-06-22T18:06:25;22.63;55.54
65864;SHT30;52639;51.180;20.460;2023-06-22T18:10:39;22.42;56.64
65864;SHT30;52639;51.180;20.460;2023-06-22T18:14:46;22.19;58.12
65864;SHT30;52639;51.180;20.460;2023-06-22T18:18:53;22.09;59.24
65864;SHT30;52639;51.180;20.460;2023-06-22T18:31:06;21.12;62.25
65864;SHT30;52639;51.180;20.460;2023-06-22T18:35:44;20.81;63.28
65864;SHT30;52639;51.180;20.460;2023-06-22T18:39:52;21.04;62.31
65864;SHT30;52639;51.180;20.460;2023-06-22T18:48:40;20.26;64.52
65864;SHT30;52639;51.180;20.460;2023-06-22T18:53:04;20.06;64.98
65864;SHT30;52639;51.180;20.460;2023-06-22T19:01:45;19.47;66.72
65864;SHT30;52639;51.180;20.460;2023-06-22T19:05:49;19.43;66.76
65864;SHT30;52639;51.180;20.460;2023-06-22T19:14:30;19.30;67.60
65864;SHT30;52639;51.180;20.460;2023-06-22T19:18:51;19.03;68.35
65864;SHT30;52639;51.180;20.460;2023-06-22T19:22:57;18.80;68.82
65864;SHT30;52639;51.180;20.460;2023-06-22T19:27:01;18.40;69.94
65864;SHT30;52639;51.180;20.460;2023-06-22T19:31:06;17.96;71.27
65864;SHT30;52639;51.180;20.460;2023-06-22T19:35:35;17.72;71.81
65864;SHT30;52639;51.180;20.460;2023-06-22T19:39:41;17.48;72.56
65864;SHT30;52639;51.180;20.460;2023-06-22T19:48:55;17.06;73.28
65864;SHT30;52639;51.180;20.460;2023-06-22T19:53:09;16.91;73.62
65864;SHT30;52639;51.180;20.460;2023-06-22T19:57:13;16.84;73.64
65864;SHT30;52639;51.180;20.460;2023-06-22T20:01:16;16.79;74.15
65864;SHT30;52639;51.180;20.460;2023-06-22T20:05:41;16.48;74.74
65864;SHT30;52639;51.180;20.460;2023-06-22T20:09:44;16.38;74.85
65864;SHT30;52639;51.180;20.460;2023-06-22T20:14:04;16.35;74.92
65864;SHT30;52639;51.180;20.460;2023-06-22T20:18:08;16.25;75.19
65864;SHT30;52639;51.180;20.460;2023-06-22T20:22:28;16.11;75.48
65864;SHT30;52639;51.180;20.460;2023-06-22T20:26:46;16.28;75.19
65864;SHT30;52639;51.180;20.460;2023-06-22T20:31:03;16.02;76.03
65864;SHT30;52639;51.180;20.460;2023-06-22T20:35:07;16.02;76.00
65864;SHT30;52639;51.180;20.460;2023-06-22T20:39:12;16.05;75.91
65864;SHT30;52639;51.180;20.460;2023-06-22T20:43:15;15.91;76.20
65864;SHT30;52639;51.180;20.460;2023-06-22T20:47:19;15.80;76.86
65864;SHT30;52639;51.180;20.460;2023-06-22T20:51:28;15.84;76.98
65864;SHT30;52639;51.180;20.460;2023-06-22T20:55:41;15.74;77.00
65864;SHT30;52639;51.180;20.460;2023-06-22T20:59:45;15.58;77.46
65864;SHT30;52639;51.180;20.460;2023-06-22T21:03:48;15.57;77.48
65864;SHT30;52639;51.180;20.460;2023-06-22T21:07:51;15.50;77.65
65864;SHT30;52639;51.180;20.460;2023-06-22T21:11:57;15.41;77.97
65864;SHT30;52639;51.180;20.460;2023-06-22T21:16:17;15.36;78.19
65864;SHT30;52639;51.180;20.460;2023-06-22T21:20:26;15.46;77.93
65864;SHT30;52639;51.180;20.460;2023-06-22T21:24:28;15.46;77.91
65864;SHT30;52639;51.180;20.460;2023-06-22T21:28:49;15.28;78.50
65864;SHT30;52639;51.180;20.460;2023-06-22T21:32:52;15.11;78.77
65864;SHT30;52639;51.180;20.460;2023-06-22T21:36:55;15.04;79.01
65864;SHT30;52639;51.180;20.460;2023-06-22T21:41:27;15.04;79.06
65864;SHT30;52639;51.180;20.460;2023-06-22T21:45:32;15.03;78.89
65864;SHT30;52639;51.180;20.460;2023-06-22T21:49:38;14.95;79.08
65864;SHT30;52639;51.180;20.460;2023-06-22T21:53:54;14.92;79.33
65864;SHT30;52639;51.180;20.460;2023-06-22T21:58:06;14.99;79.21
65864;SHT30;52639;51.180;20.460;2023-06-22T22:02:11;14.83;79.47
65864;SHT30;52639;51.180;20.460;2023-06-22T22:06:28;14.76;79.72
65864;SHT30;52639;51.180;20.460;2023-06-22T22:10:31;14.53;80.32
65864;SHT30;52639;51.180;20.460;2023-06-22T22:14:37;14.41;80.71
65864;SHT30;52639;51.180;20.460;2023-06-22T22:18:43;14.48;80.47
65864;SHT30;52639;51.180;20.460;2023-06-22T22:22:48;14.43;80.43
65864;SHT30;52639;51.180;20.460;2023-06-22T22:27:03;14.33;80.78
65864;SHT30;52639;51.180;20.460;2023-06-22T22:31:07;14.22;81.64
65864;SHT30;52639;51.180;20.460;2023-06-22T22:35:32;14.01;81.48
65864;SHT30;52639;51.180;20.460;2023-06-22T22:39:36;14.08;81.17
65864;SHT30;52639;51.180;20.460;2023-06-22T22:43:43;13.97;81.36
65864;SHT30;52639;51.180;20.460;2023-06-22T22:47:46;13.94;81.49
65864;SHT30;52639;51.180;20.460;2023-06-22T22:51:51;13.87;81.55
65864;SHT30;52639;51.180;20.460;2023-06-22T22:56:00;13.84;81.68
65864;SHT30;52639;51.180;20.460;2023-06-22T23:00:28;13.92;81.60
65864;SHT30;52639;51.180;20.460;2023-06-22T23:04:31;13.97;81.36
65864;SHT30;52639;51.180;20.460;2023-06-22T23:08:36;13.85;81.66
65864;SHT30;52639;51.180;20.460;2023-06-22T23:12:48;13.81;81.85
65864;SHT30;52639;51.180;20.460;2023-06-22T23:16:51;13.81;81.91
65864;SHT30;52639;51.180;20.460;2023-06-22T23:20:58;13.79;82.02
65864;SHT30;52639;51.180;20.460;2023-06-22T23:25:27;13.79;81.85
65864;SHT30;52639;51.180;20.460;2023-06-22T23:29:31;13.61;82.29
65864;SHT30;52639;51.180;20.460;2023-06-22T23:39:04;13.39;82.89
65864;SHT30;52639;51.180;20.460;2023-06-22T23:43:09;13.40;82.95
65864;SHT30;52639;51.180;20.460;2023-06-22T23:47:12;13.27;83.05
65864;SHT30;52639;51.180;20.460;2023-06-22T23:51:15;13.42;82.68
65864;SHT30;52639;51.180;20.460;2023-06-22T23:55:19;13.46;82.53
65864;SHT30;52639;51.180;20.460;2023-06-22T23:59:26;13.54;82.45
